Other Surface Observations
Issued by NWS Missoula, MT

Home | Current Version | Previous Version | Text Only | Print | Product List | Glossary On
Versions: 1 2 3 4 5 6 7 8 9 10 11 12 13 14 15 16 17 18 19 20 21 22 23 24 25 26 27 28 29 30 31 32 33 34 35 36 37 38 39 40 41 42 43 44 45 46 47 48 49 50
000
SXUS55 KMSO 021743
OSOMSO
MONTANA AWOS SUMMARY
NATIONAL WEATHER SERVICE MISSOULA MT
1143 AM MDT THU JUL 2 2015

Montana AWOS Reports

LAUREL      |K6S8 021735Z AUTO 00000KT 15SM 25/11 A3015 RMK AO1 T02500111
TWIN BRIDGES|K7S1 021735Z AUTO 00000KT 25SM 26/10 A3017 RMK AO1 T02560100
ROUNDUP     |KRPX 021735Z AUTO 34011G16KT 40SM 25/11 A3007 RMK AO1 T02500106
MALTA       |KM75 021735Z AUTO 33006KT 15SM 24/14 A3007 RMK AO1 T02390139




USA.gov is the U.S. government's official web portal to all federal, state and local government web resources and services.